»·PEaware :: N308MA KSNA-KSDM

N308MA :: KSNA-KSDM

FLIGHT INFORMATION

Flight Status: Arrived
Operator: Privately registered:
United States
More flights under this callsign
Pilot: Michael Anderson (15967)
Aircraft: CESSNA 172 SKYHAWK
(C172)
More flights by this aircraft type
Origin: KSNA John Wayne-Orange Co
United States
Destination: KSDM Brown Mun
United States
More flights between these airports :: More routes between these airports
Route: +
File this flight plan on PilotEdge
Remarks:
Altitude:
(Current/Filed)
3,000ft
Speed:
(Current/Filed)
0kts
Departed: 08-Aug-17 10:00 PM
Arrived: 08-Aug-17 10:43 PM
Distance/Time
Traveled:
80nm/0:42
Distance/Time
To Go:
Arrived

Flight Plot

Page will automatically refresh every two minutes.

Flight plan parsing failed; only flown route is shown


Map Options




Map Legend


Flown Route
Filed Route
Departure Airport
Arrival Airport
Navaid (VOR, NDB)
Fix

Horizontal Profiles

Position Reports

Time Latitude Longitude Heading Altitude Ground
Speed
08-Aug-17 22:02 33.630815 -117.426902 73 5501ft 130kts
08-Aug-17 22:03 33.641286 -117.385456 74 5501ft 129kts
08-Aug-17 22:04 33.646693 -117.344623 119 5491ft 126kts
08-Aug-17 22:05 33.630829 -117.308171 119 5499ft 126kts
08-Aug-17 22:06 33.605405 -117.284133 163 5503ft 122kts
08-Aug-17 22:07 33.572804 -117.272246 164 5502ft 122kts
08-Aug-17 22:08 33.539865 -117.260292 164 5509ft 125kts
08-Aug-17 22:09 33.506380 -117.248202 165 5514ft 127kts
08-Aug-17 22:10 33.472788 -117.236014 164 5506ft 125kts
08-Aug-17 22:11 33.439266 -117.223927 164 5527ft 127kts
08-Aug-17 22:12 33.405884 -117.211850 164 5503ft 126kts
08-Aug-17 22:13 33.372223 -117.199662 164 5453ft 125kts
08-Aug-17 22:14 33.338838 -117.187573 164 5460ft 128kts
08-Aug-17 22:15 33.305306 -117.175477 164 5457ft 125kts
08-Aug-17 22:16 33.272379 -117.163524 164 5454ft 125kts
08-Aug-17 22:17 33.240030 -117.147896 148 5460ft 129kts
08-Aug-17 22:18 33.211034 -117.123758 148 5455ft 128kts
08-Aug-17 22:19 33.181659 -117.099973 130 5478ft 129kts
08-Aug-17 22:20 33.157488 -117.067873 133 5486ft 129kts
08-Aug-17 22:21 33.132427 -117.037092 141 5466ft 130kts
08-Aug-17 22:22 33.106661 -117.007645 129 5452ft 129kts
08-Aug-17 22:23 33.084970 -116.973544 123 5453ft 129kts
08-Aug-17 22:24 33.066648 -116.936614 121 5473ft 131kts
08-Aug-17 22:25 33.049658 -116.898546 119 5456ft 129kts
08-Aug-17 22:26 33.033867 -116.860260 120 5453ft 128kts
08-Aug-17 22:27 33.017197 -116.822457 118 5449ft 131kts
08-Aug-17 22:28 32.991155 -116.798495 174 5461ft 127kts
08-Aug-17 22:29 32.962037 -116.796051 179 5452ft 125kts
08-Aug-17 22:30 32.921745 -116.794779 159 5455ft 124kts
08-Aug-17 22:31 32.890297 -116.783163 163 5456ft 125kts
08-Aug-17 22:32 32.856844 -116.771359 161 5459ft 126kts
08-Aug-17 22:33 32.828510 -116.759116 161 5219ft 135kts
08-Aug-17 22:34 32.792561 -116.744338 163 4786ft 137kts
08-Aug-17 22:35 32.755647 -116.731715 171 5302ft 114kts
08-Aug-17 22:36 32.722036 -116.729988 181 5305ft 125kts
08-Aug-17 22:37 32.693036 -116.732102 184 5298ft 125kts
08-Aug-17 22:38 32.658853 -116.738140 199 5302ft 126kts
08-Aug-17 22:39 32.628405 -116.759123 220 5301ft 126kts
08-Aug-17 22:40 32.609468 -116.794322 240 5332ft 127kts
08-Aug-17 22:41 32.599863 -116.833636 252 5024ft 124kts
08-Aug-17 22:42 32.572581 -116.849681 229 4338ft 125kts
08-Aug-17 22:43 32.571722 -116.890275 268 3137ft 125kts
08-Aug-17 22:44 32.570829 -116.929784 262 1557ft 116kts
08-Aug-17 22:45 32.571393 -116.963406 273 656ft 76kts
08-Aug-17 22:46 32.571313 -116.974172 202 510ft 0kts
08-Aug-17 22:47 32.571243 -116.974189 183 510ft 1kts
08-Aug-17 22:48 32.569919 -116.975600 277 511ft 11kts
08-Aug-17 22:49 32.570227 -116.979181 275 510ft 14kts
08-Aug-17 22:50 32.570547 -116.982879 273 511ft 12kts
08-Aug-17 22:51 32.571093 -116.985987 276 510ft 12kts
08-Aug-17 22:52 32.571375 -116.990008 264 510ft 9kts
08-Aug-17 22:53 32.571227 -116.992157 5 510ft 4kts
08-Aug-17 22:54 32.571373 -116.992498 356 510ft 0kts
08-Aug-17 22:55 32.571373 -116.992498 356 510ft 0kts
08-Aug-17 22:56 32.571373 -116.992498 356 510ft 0kts
08-Aug-17 22:57 32.571373 -116.992498 356 510ft 0kts
08-Aug-17 22:58 32.571373 -116.992498 356 510ft 0kts

Navigation Log

Ident Type
Flight plan parsing failed, navigation log unavailable